Time;durP1;ratioP1;P1;durP2;ratioP2;P2;SDS_P1;SDS_P2;PMS_P1;PMS_P2;Temp;Humidity;BMP_temperature;BMP_pressure;BME280_temperature;BME280_humidity;BME280_pressure;Samples;Min_cycle;Max_cycle;Signal;HPM_P1;HPM_P2
2022/02/24 00:02:06;;;;;;;7.23;5.13;;;12.20;50.60;;;;;;5041754;28;20641;-48
2022/02/24 00:04:32;;;;;;;8.70;4.87;;;12.30;50.50;;;;;;5041565;28;20247;-46
2022/02/24 00:06:59;;;;;;;6.37;4.80;;;11.90;50.20;;;;;;5049833;28;20423;-46
2022/02/24 00:09:24;;;;;;;5.40;4.77;;;11.80;51.60;;;;;;5046521;28;20427;-47
2022/02/24 00:11:50;;;;;;;9.00;5.60;;;12.00;51.60;;;;;;5037903;28;20439;-48
2022/02/24 00:14:15;;;;;;;5.80;4.37;;;12.10;51.10;;;;;;5034425;28;20227;-50
2022/02/24 00:16:41;;;;;;;8.10;5.13;;;12.20;50.80;;;;;;5039606;28;20201;-46
2022/02/24 00:19:07;;;;;;;11.67;5.30;;;12.20;50.60;;;;;;5041598;28;20970;-46
2022/02/24 00:21:32;;;;;;;7.27;4.57;;;12.00;50.80;;;;;;5041989;28;20224;-45
2022/02/24 00:23:58;;;;;;;5.10;4.30;;;12.00;50.80;;;;;;5038283;28;20220;-46
2022/02/24 00:26:23;;;;;;;7.47;5.03;;;11.80;51.00;;;;;;5034308;28;20188;-48
2022/02/24 00:28:49;;;;;;;6.30;3.87;;;11.90;51.60;;;;;;5036799;28;20288;-49
2022/02/24 00:31:15;;;;;;;5.93;4.20;;;12.00;51.20;;;;;;5037340;28;20235;-48
2022/02/24 00:33:40;;;;;;;6.20;4.17;;;12.20;50.80;;;;;;5040585;28;22223;-47
2022/02/24 00:36:06;;;;;;;5.90;4.13;;;12.30;50.70;;;;;;5041004;28;20250;-49
2022/02/24 00:38:33;;;;;;;6.43;3.63;;;12.30;50.80;;;;;;5038578;28;20192;-47
2022/02/24 00:40:59;;;;;;;6.70;4.37;;;12.10;50.70;;;;;;5039562;28;20197;-49
2022/02/24 00:43:24;;;;;;;7.60;4.63;;;12.20;51.00;;;;;;5046863;28;20474;-49
2022/02/24 00:45:50;;;;;;;8.90;4.40;;;12.30;50.80;;;;;;5041115;28;20208;-47
2022/02/24 00:48:15;;;;;;;8.10;4.37;;;12.20;50.80;;;;;;5044227;28;20207;-47
2022/02/24 00:50:42;;;;;;;5.10;4.20;;;12.30;50.90;;;;;;5044169;28;20270;-46
2022/02/24 00:53:07;;;;;;;4.60;4.20;;;12.40;50.40;;;;;;5040269;28;20683;-51
2022/02/24 00:55:33;;;;;;;5.93;4.00;;;12.40;50.50;;;;;;5038805;28;20486;-48
2022/02/24 00:57:59;;;;;;;6.57;4.33;;;11.80;51.20;;;;;;5041555;28;20190;-47
2022/02/24 01:00:24;;;;;;;7.07;3.87;;;11.80;52.30;;;;;;5040577;28;20192;-46
2022/02/24 01:02:50;;;;;;;6.27;4.33;;;11.90;52.10;;;;;;5048786;28;20196;-47
2022/02/24 01:05:16;;;;;;;6.73;4.17;;;12.00;51.50;;;;;;5037619;28;20193;-47
2022/02/24 01:07:41;;;;;;;6.30;4.20;;;12.00;51.40;;;;;;5044473;28;20193;-46
2022/02/24 01:10:09;;;;;;;7.07;4.30;;;11.60;52.10;;;;;;5044737;28;20243;-51
2022/02/24 01:12:37;;;;;;;4.67;4.20;;;11.50;52.40;;;;;;5049684;28;20624;-49
2022/02/24 01:15:08;;;;;;;6.60;4.00;;;11.40;52.90;;;;;;5039477;28;20981;-47
2022/02/24 01:17:35;;;;;;;6.33;3.97;;;11.70;52.60;;;;;;5040410;28;20507;-46
2022/02/24 01:20:00;;;;;;;6.80;4.13;;;12.00;52.00;;;;;;5044363;28;20440;-48
2022/02/24 01:22:26;;;;;;;4.93;3.13;;;12.20;51.50;;;;;;5045735;28;20447;-50
2022/02/24 01:24:52;;;;;;;5.57;3.33;;;12.30;50.80;;;;;;5043364;28;21009;-49
2022/02/24 01:27:19;;;;;;;6.53;3.40;;;12.40;50.70;;;;;;5047174;28;20472;-46
2022/02/24 01:29:44;;;;;;;5.67;3.03;;;12.50;50.50;;;;;;5035283;28;20223;-47
2022/02/24 01:32:10;;;;;;;6.00;3.50;;;12.50;50.50;;;;;;5039979;28;20444;-49
2022/02/24 01:34:36;;;;;;;5.70;4.10;;;12.40;50.70;;;;;;5041352;28;20520;-47
2022/02/24 01:37:01;;;;;;;6.27;3.47;;;12.20;51.50;;;;;;5043664;28;20195;-47
2022/02/24 01:39:27;;;;;;;3.60;3.10;;;12.30;51.60;;;;;;5046973;28;20196;-49
2022/02/24 01:41:54;;;;;;;4.90;3.17;;;12.30;51.70;;;;;;5039600;28;20243;-48
2022/02/24 01:44:20;;;;;;;3.90;3.30;;;12.30;51.90;;;;;;5037953;28;20342;-47
2022/02/24 01:46:46;;;;;;;3.10;2.80;;;12.40;52.00;;;;;;5039630;28;21083;-48
2022/02/24 01:49:12;;;;;;;4.53;3.00;;;12.40;51.90;;;;;;5040377;28;20612;-47
2022/02/24 01:51:38;;;;;;;3.13;2.93;;;12.60;51.70;;;;;;5039064;28;20192;-47
2022/02/24 01:54:07;;;;;;;5.10;3.73;;;12.60;51.30;;;;;;5041228;28;20633;-46
2022/02/24 01:56:34;;;;;;;6.50;3.37;;;12.70;51.20;;;;;;5046962;28;20885;-48
2022/02/24 01:59:00;;;;;;;4.07;3.10;;;12.80;51.20;;;;;;5035223;28;20455;-47
2022/02/24 02:01:26;;;;;;;5.73;3.80;;;12.90;50.80;;;;;;5040524;28;20910;-48
2022/02/24 02:03:54;;;;;;;5.40;3.33;;;12.90;50.60;;;;;;5043749;28;20450;-47
2022/02/24 02:06:20;;;;;;;3.63;3.20;;;13.10;50.40;;;;;;5039247;28;20260;-47
2022/02/24 02:08:46;;;;;;;5.27;3.70;;;13.10;50.20;;;;;;5036505;28;21198;-47
2022/02/24 02:11:11;;;;;;;5.00;3.67;;;13.10;50.00;;;;;;5041363;28;20476;-48
2022/02/24 02:13:37;;;;;;;4.00;3.60;;;13.20;49.80;;;;;;5044169;28;20224;-46
2022/02/24 02:16:03;;;;;;;4.47;3.87;;;13.20;49.40;;;;;;5041288;28;20275;-47
2022/02/24 02:18:29;;;;;;;6.67;3.97;;;13.20;49.60;;;;;;5043175;28;20276;-47
2022/02/24 02:20:55;;;;;;;5.50;4.20;;;13.20;49.90;;;;;;5043459;28;20439;-49
2022/02/24 02:23:20;;;;;;;5.00;3.70;;;13.20;49.90;;;;;;5045072;28;20189;-47
2022/02/24 02:25:47;;;;;;;4.90;4.37;;;13.20;49.70;;;;;;5043506;28;20554;-48
2022/02/24 02:28:14;;;;;;;7.40;4.70;;;13.20;49.30;;;;;;5035713;28;20703;-46
2022/02/24 02:30:41;;;;;;;4.63;4.00;;;13.20;49.10;;;;;;5041819;28;20569;-46
2022/02/24 02:33:07;;;;;;;6.97;4.50;;;13.10;49.10;;;;;;5044742;28;20431;-46
2022/02/24 02:35:32;;;;;;;6.23;2.97;;;13.00;49.20;;;;;;5040594;28;20537;-48
2022/02/24 02:37:58;;;;;;;4.37;3.97;;;13.10;49.30;;;;;;5036583;28;20193;-45
2022/02/24 02:40:25;;;;;;;4.93;3.67;;;13.00;49.20;;;;;;5036729;28;20564;-45
2022/02/24 02:42:50;;;;;;;8.27;4.37;;;13.00;49.30;;;;;;5042408;28;20355;-47
2022/02/24 02:45:16;;;;;;;4.80;4.00;;;13.00;49.50;;;;;;5042871;28;20562;-45
2022/02/24 02:47:43;;;;;;;6.50;4.10;;;12.90;49.40;;;;;;5036830;28;20213;-45
2022/02/24 02:50:09;;;;;;;3.80;3.30;;;13.00;49.40;;;;;;5032785;28;20486;-45
2022/02/24 02:55:08;;;;;;;4.83;3.90;;;13.00;49.20;;;;;;5044316;28;20502;-47
2022/02/24 02:57:34;;;;;;;5.07;3.60;;;12.90;49.10;;;;;;5029941;28;20189;-45
2022/02/24 03:00:01;;;;;;;5.30;3.80;;;12.90;49.40;;;;;;5035978;28;20993;-46
2022/02/24 03:02:26;;;;;;;4.93;3.60;;;12.80;49.30;;;;;;5041949;28;20435;-50
2022/02/24 03:04:53;;;;;;;6.57;3.90;;;12.80;49.60;;;;;;5042604;28;20469;-46
2022/02/24 03:07:19;;;;;;;5.80;4.10;;;12.70;50.60;;;;;;5036826;28;20200;-47
2022/02/24 03:09:45;;;;;;;4.97;4.20;;;12.70;50.00;;;;;;5038086;28;20952;-48
2022/02/24 03:12:12;;;;;;;6.00;3.60;;;12.70;49.90;;;;;;5049060;28;20215;-46
2022/02/24 03:14:38;;;;;;;5.37;3.90;;;12.50;50.20;;;;;;5047927;28;20489;-48
2022/02/24 03:17:04;;;;;;;5.70;3.73;;;12.50;50.10;;;;;;5040327;28;20802;-46
2022/02/24 03:19:30;;;;;;;3.90;3.40;;;12.40;50.20;;;;;;5041771;28;20436;-48
2022/02/24 03:21:56;;;;;;;6.90;4.20;;;12.30;50.90;;;;;;5038620;28;20786;-47
2022/02/24 03:24:21;;;;;;;6.00;4.00;;;12.30;50.50;;;;;;5039338;28;20696;-47
2022/02/24 03:26:48;;;;;;;4.30;3.90;;;12.40;50.00;;;;;;5044329;28;22189;-47
2022/02/24 03:29:14;;;;;;;4.73;4.27;;;12.50;49.90;;;;;;5044362;28;20652;-46
2022/02/24 03:31:39;;;;;;;5.30;4.00;;;12.50;50.10;;;;;;5043832;28;20435;-48
2022/02/24 03:34:05;;;;;;;7.00;4.27;;;12.20;50.20;;;;;;5040603;28;20229;-46
2022/02/24 03:36:31;;;;;;;5.77;4.27;;;12.00;51.10;;;;;;5042024;28;21230;-47
2022/02/24 03:38:57;;;;;;;4.97;4.10;;;12.10;51.20;;;;;;5045200;28;20195;-46
2022/02/24 03:41:23;;;;;;;4.83;3.77;;;11.90;50.90;;;;;;5045205;28;20842;-45
2022/02/24 03:43:48;;;;;;;4.83;3.70;;;11.80;51.80;;;;;;5045189;28;20572;-46
2022/02/24 03:46:14;;;;;;;9.03;3.80;;;11.90;51.70;;;;;;5044416;28;20185;-46
2022/02/24 03:48:40;;;;;;;3.83;3.30;;;11.90;51.60;;;;;;5038274;28;20197;-46
2022/02/24 03:51:05;;;;;;;5.67;3.83;;;12.00;51.60;;;;;;5047983;28;20185;-47
2022/02/24 03:53:31;;;;;;;4.00;3.23;;;12.00;51.90;;;;;;5041945;28;20652;-48
2022/02/24 03:55:56;;;;;;;5.33;4.00;;;12.00;51.50;;;;;;5042834;28;20193;-47
2022/02/24 03:58:22;;;;;;;4.37;2.50;;;11.80;51.70;;;;;;5038496;28;20196;-45
2022/02/24 04:00:47;;;;;;;5.00;4.07;;;11.70;52.40;;;;;;5047597;28;20204;-47
2022/02/24 04:03:13;;;;;;;4.50;3.23;;;11.80;52.50;;;;;;5041656;28;20189;-47
2022/02/24 04:05:38;;;;;;;4.17;3.20;;;11.90;52.10;;;;;;5042950;28;20193;-45
2022/02/24 04:08:05;;;;;;;4.47;3.30;;;12.00;52.20;;;;;;5054171;28;20250;-47
2022/02/24 04:10:31;;;;;;;6.07;3.13;;;12.00;52.10;;;;;;5039826;28;20739;-49
2022/02/24 04:12:56;;;;;;;3.77;2.67;;;11.90;52.10;;;;;;5041384;28;20435;-46
2022/02/24 04:15:22;;;;;;;3.83;3.33;;;12.10;52.60;;;;;;5044983;28;20499;-46
2022/02/24 04:17:48;;;;;;;4.97;3.77;;;12.20;52.00;;;;;;5037037;28;20270;-47
2022/02/24 04:20:13;;;;;;;11.70;4.67;;;11.70;52.00;;;;;;5038802;28;20965;-47
2022/02/24 04:22:39;;;;;;;8.87;4.53;;;11.50;52.70;;;;;;5033267;28;20632;-47
2022/02/24 04:25:05;;;;;;;11.40;3.77;;;11.40;52.90;;;;;;5041895;28;20203;-46
2022/02/24 04:27:31;;;;;;;5.10;3.73;;;11.00;53.30;;;;;;5040676;28;20196;-48
2022/02/24 04:29:56;;;;;;;6.97;3.47;;;10.90;53.90;;;;;;5051833;28;20762;-50
2022/02/24 04:32:22;;;;;;;4.87;3.43;;;11.10;53.80;;;;;;5041730;28;20255;-48
2022/02/24 04:34:47;;;;;;;4.93;2.80;;;11.40;53.30;;;;;;5045323;28;20337;-48
2022/02/24 04:37:13;;;;;;;4.20;3.07;;;11.40;52.80;;;;;;5038893;28;20207;-47
2022/02/24 04:39:38;;;;;;;3.10;2.90;;;11.50;52.90;;;;;;5047889;28;20686;-45
2022/02/24 04:42:04;;;;;;;7.40;3.10;;;11.70;52.40;;;;;;5038178;28;20238;-50
2022/02/24 04:44:30;;;;;;;7.37;3.50;;;11.70;52.20;;;;;;5044402;28;20193;-45
2022/02/24 04:46:55;;;;;;;4.33;3.60;;;11.60;52.10;;;;;;5041739;28;20936;-45
2022/02/24 04:49:21;;;;;;;5.13;3.70;;;11.50;52.20;;;;;;5032455;28;20262;-45
2022/02/24 04:51:47;;;;;;;4.30;3.43;;;11.10;52.50;;;;;;5040857;28;20248;-46
2022/02/24 04:54:12;;;;;;;5.33;3.33;;;11.00;53.30;;;;;;5038753;28;20231;-47
2022/02/24 04:56:38;;;;;;;6.47;3.57;;;10.40;53.80;;;;;;5035637;28;20189;-47
2022/02/24 04:59:03;;;;;;;5.07;3.30;;;10.20;54.70;;;;;;5035457;28;20649;-51
2022/02/24 05:01:29;;;;;;;6.60;3.47;;;10.30;54.70;;;;;;5042952;28;20607;-49
2022/02/24 05:03:55;;;;;;;5.03;3.30;;;10.10;54.90;;;;;;5040117;28;20197;-46
2022/02/24 05:06:20;;;;;;;3.93;3.50;;;10.00;55.30;;;;;;5033222;28;20712;-45
2022/02/24 05:08:46;;;;;;;4.53;3.63;;;10.10;55.20;;;;;;5045514;28;20204;-51
2022/02/24 05:11:11;;;;;;;7.63;3.80;;;10.10;55.30;;;;;;5038846;28;20232;-47
2022/02/24 05:13:37;;;;;;;4.40;3.53;;;10.10;55.40;;;;;;5045697;28;20627;-45
2022/02/24 05:16:03;;;;;;;3.83;3.53;;;10.10;55.20;;;;;;5046066;28;20193;-45
2022/02/24 05:18:28;;;;;;;4.00;3.60;;;10.30;55.20;;;;;;5041289;28;20192;-46
2022/02/24 05:20:54;;;;;;;4.63;4.23;;;10.20;55.10;;;;;;5042608;28;20843;-47
2022/02/24 05:23:19;;;;;;;6.30;3.60;;;10.10;55.50;;;;;;5041604;28;20242;-46
2022/02/24 05:25:45;;;;;;;9.60;3.80;;;10.20;55.50;;;;;;5038779;28;20185;-48
2022/02/24 05:28:11;;;;;;;6.40;3.90;;;10.40;55.10;;;;;;5042029;28;20607;-46
2022/02/24 05:30:38;;;;;;;5.73;4.10;;;10.20;55.10;;;;;;5043039;28;20200;-50
2022/02/24 05:33:04;;;;;;;6.60;3.33;;;10.30;55.10;;;;;;5041844;28;20446;-46
2022/02/24 05:35:31;;;;;;;5.10;3.63;;;9.90;56.20;;;;;;5043761;28;21023;-45
2022/02/24 05:37:56;;;;;;;5.00;3.73;;;9.80;56.80;;;;;;5039289;28;20442;-48
2022/02/24 05:40:22;;;;;;;8.03;4.30;;;9.60;57.40;;;;;;5037801;28;21033;-47
2022/02/24 05:42:49;;;;;;;6.93;3.83;;;9.70;57.20;;;;;;5039554;28;21000;-47
2022/02/24 05:45:15;;;;;;;6.27;3.60;;;9.60;57.50;;;;;;5037507;28;20526;-50
2022/02/24 05:47:41;;;;;;;4.80;3.40;;;9.50;57.70;;;;;;5042655;28;20530;-47
2022/02/24 05:50:07;;;;;;;4.47;3.43;;;9.60;57.80;;;;;;5044311;28;20305;-50
2022/02/24 05:52:36;;;;;;;4.47;3.37;;;9.70;57.60;;;;;;5047067;28;20216;-48
2022/02/24 05:55:04;;;;;;;8.40;2.93;;;9.80;57.30;;;;;;5037347;28;20524;-50
2022/02/24 05:57:30;;;;;;;6.13;3.23;;;9.80;57.50;;;;;;5039427;28;20447;-49
2022/02/24 05:59:56;;;;;;;3.10;2.80;;;10.00;57.30;;;;;;5039188;28;20462;-47
2022/02/24 06:02:21;;;;;;;3.50;2.73;;;10.20;57.40;;;;;;5041776;28;20620;-46
2022/02/24 06:04:47;;;;;;;4.70;2.67;;;10.30;56.90;;;;;;5042596;28;20519;-47
2022/02/24 06:07:12;;;;;;;4.70;2.97;;;10.40;56.30;;;;;;5043708;28;20648;-44
2022/02/24 06:09:38;;;;;;;4.03;3.00;;;10.60;56.00;;;;;;5036162;28;20216;-48
2022/02/24 06:12:04;;;;;;;7.40;3.63;;;10.70;55.40;;;;;;5038029;28;20188;-45
2022/02/24 06:14:30;;;;;;;4.60;3.30;;;10.70;54.90;;;;;;5034202;28;20220;-44
2022/02/24 06:16:56;;;;;;;3.73;3.20;;;10.80;54.70;;;;;;5037165;28;20438;-46
2022/02/24 06:19:22;;;;;;;4.53;3.10;;;10.80;54.60;;;;;;5038371;28;20660;-49
2022/02/24 06:21:48;;;;;;;5.40;3.60;;;10.90;54.20;;;;;;5044939;28;20496;-45
2022/02/24 06:24:14;;;;;;;5.77;3.50;;;10.80;54.40;;;;;;5045122;28;20663;-46
2022/02/24 06:26:40;;;;;;;3.70;3.40;;;10.70;54.70;;;;;;5049163;28;20923;-50
2022/02/24 06:29:05;;;;;;;4.33;3.50;;;10.90;54.50;;;;;;5042007;28;20493;-47
2022/02/24 06:31:34;;;;;;;4.83;3.80;;;11.00;54.20;;;;;;5045946;28;20597;-45
2022/02/24 06:34:03;;;;;;;5.37;4.43;;;11.10;53.50;;;;;;5044689;28;20209;-47
2022/02/24 06:36:29;;;;;;;5.33;4.40;;;11.00;53.10;;;;;;5043245;28;20542;-56
2022/02/24 06:38:57;;;;;;;5.33;3.93;;;10.60;54.50;;;;;;5040445;28;20447;-48
2022/02/24 06:41:26;;;;;;;7.90;4.33;;;10.80;54.40;;;;;;5045329;28;20804;-50
2022/02/24 06:43:53;;;;;;;4.60;3.93;;;10.90;54.00;;;;;;5049232;28;20439;-48
2022/02/24 06:46:19;;;;;;;7.00;4.03;;;11.10;53.60;;;;;;5044147;28;20985;-47
2022/02/24 06:48:46;;;;;;;6.13;3.80;;;11.20;53.20;;;;;;5039703;28;20436;-48
2022/02/24 06:51:11;;;;;;;7.57;3.60;;;10.90;53.20;;;;;;5047135;28;20192;-47
2022/02/24 06:53:37;;;;;;;5.50;3.60;;;10.70;53.80;;;;;;5044150;28;20444;-47
2022/02/24 06:56:03;;;;;;;5.17;3.70;;;10.80;54.30;;;;;;5043418;28;20200;-46
2022/02/24 06:58:29;;;;;;;7.73;4.20;;;10.80;53.80;;;;;;5047413;28;20434;-46
2022/02/24 07:00:54;;;;;;;3.93;3.60;;;10.90;53.90;;;;;;5046209;28;20457;-44
2022/02/24 07:03:20;;;;;;;7.93;3.97;;;10.90;53.60;;;;;;5044125;28;20201;-48
2022/02/24 07:05:45;;;;;;;5.20;4.33;;;10.60;54.10;;;;;;5036134;28;20200;-45
2022/02/24 07:08:11;;;;;;;11.77;8.00;;;10.70;54.40;;;;;;5039055;28;20201;-44
2022/02/24 07:10:37;;;;;;;11.83;6.20;;;10.80;54.10;;;;;;5048657;28;21026;-45
2022/02/24 07:13:02;;;;;;;10.67;3.60;;;11.00;54.00;;;;;;5042956;28;20254;-46
2022/02/24 07:15:28;;;;;;;7.37;4.93;;;11.10;53.80;;;;;;5047497;28;20599;-47
2022/02/24 07:17:54;;;;;;;7.50;5.03;;;11.10;53.80;;;;;;5042748;28;20199;-48
2022/02/24 07:20:19;;;;;;;4.83;4.10;;;11.10;53.50;;;;;;5041071;28;20568;-49
2022/02/24 07:22:45;;;;;;;7.83;5.10;;;11.20;53.50;;;;;;5043645;28;20198;-46
2022/02/24 07:25:12;;;;;;;8.67;4.70;;;11.10;53.20;;;;;;5030947;28;20604;-46
2022/02/24 07:27:38;;;;;;;9.83;4.97;;;11.10;53.60;;;;;;5030545;28;20443;-46
2022/02/24 07:30:05;;;;;;;7.90;4.60;;;11.10;53.70;;;;;;5031174;28;20424;-47
2022/02/24 07:32:31;;;;;;;7.77;5.30;;;11.10;53.60;;;;;;5030430;28;20271;-50
2022/02/24 07:34:57;;;;;;;7.67;5.83;;;10.70;54.50;;;;;;5028921;28;20484;-50
2022/02/24 07:37:23;;;;;;;10.77;4.87;;;10.30;55.40;;;;;;5031108;28;20434;-49
2022/02/24 07:39:49;;;;;;;10.10;5.63;;;10.20;56.00;;;;;;5033203;28;20193;-48
2022/02/24 07:42:17;;;;;;;10.80;4.67;;;10.20;56.30;;;;;;5050757;28;20235;-46
2022/02/24 07:44:46;;;;;;;8.07;4.37;;;10.40;56.30;;;;;;5043439;28;20431;-47
2022/02/24 07:47:13;;;;;;;6.90;5.00;;;10.60;55.90;;;;;;5031994;28;20490;-46
2022/02/24 07:49:39;;;;;;;7.07;4.30;;;10.80;55.70;;;;;;5030600;28;20431;-51
2022/02/24 07:52:08;;;;;;;7.63;4.20;;;11.10;55.30;;;;;;5031183;28;20459;-52
2022/02/24 07:54:34;;;;;;;10.80;4.23;;;11.20;54.90;;;;;;5030068;28;20488;-52
2022/02/24 07:57:01;;;;;;;7.10;4.93;;;11.10;55.00;;;;;;5030827;28;20428;-48
2022/02/24 07:59:27;;;;;;;10.23;5.07;;;10.90;55.40;;;;;;5030115;28;20444;-50
2022/02/24 08:01:52;;;;;;;5.23;4.27;;;11.00;55.70;;;;;;5029408;28;20427;-50
2022/02/24 08:04:18;;;;;;;5.30;4.37;;;11.20;55.40;;;;;;5030066;28;20562;-46
2022/02/24 08:06:44;;;;;;;7.67;4.00;;;11.10;55.60;;;;;;5033833;28;20189;-48
2022/02/24 08:09:10;;;;;;;6.23;4.23;;;11.30;55.60;;;;;;5034371;28;20273;-49
2022/02/24 08:11:35;;;;;;;5.97;3.73;;;11.30;55.20;;;;;;5034806;28;20606;-46
2022/02/24 08:14:02;;;;;;;4.87;4.10;;;11.30;55.30;;;;;;5033948;28;20278;-50
2022/02/24 08:16:28;;;;;;;5.77;4.13;;;11.50;55.10;;;;;;5034815;28;20221;-46
2022/02/24 08:18:55;;;;;;;3.93;3.53;;;11.60;55.30;;;;;;5034293;28;20455;-49
2022/02/24 08:21:22;;;;;;;6.77;4.23;;;11.80;55.10;;;;;;5034653;28;20189;-48
2022/02/24 08:23:48;;;;;;;5.40;4.90;;;11.90;54.70;;;;;;5038314;28;20842;-48
2022/02/24 08:26:14;;;;;;;8.10;4.67;;;12.00;54.40;;;;;;5034690;28;20428;-52
2022/02/24 08:28:39;;;;;;;7.53;4.23;;;12.20;54.20;;;;;;5032078;28;20911;-50
2022/02/24 08:31:06;;;;;;;6.60;4.17;;;12.30;54.20;;;;;;5034344;28;20763;-50
2022/02/24 08:33:31;;;;;;;6.20;5.10;;;12.40;54.10;;;;;;5033663;28;20196;-48
2022/02/24 08:35:57;;;;;;;5.87;4.73;;;12.50;53.60;;;;;;5033846;28;20423;-52
2022/02/24 08:38:22;;;;;;;8.50;4.80;;;12.40;53.80;;;;;;5033550;28;20255;-49
2022/02/24 08:40:48;;;;;;;6.70;4.20;;;12.50;54.10;;;;;;5044947;28;20661;-46
2022/02/24 08:43:14;;;;;;;4.20;3.40;;;12.50;53.90;;;;;;5052331;28;20323;-48
2022/02/24 08:45:39;;;;;;;5.17;4.03;;;12.50;54.20;;;;;;5040640;28;20208;-50
2022/02/24 08:48:06;;;;;;;3.97;3.67;;;12.60;53.50;;;;;;5033414;28;20319;-48
2022/02/24 08:50:32;;;;;;;7.50;3.83;;;12.90;53.90;;;;;;5033730;28;20204;-51
2022/02/24 08:52:58;;;;;;;4.50;4.10;;;13.30;53.30;;;;;;5033701;28;20424;-46
2022/02/24 08:55:24;;;;;;;7.10;4.10;;;13.50;52.50;;;;;;5032661;28;20233;-49
2022/02/24 08:57:50;;;;;;;7.17;3.70;;;13.60;51.90;;;;;;5032996;28;20469;-48
2022/02/24 09:00:16;;;;;;;3.50;2.90;;;13.60;52.00;;;;;;5033981;28;20424;-50
2022/02/24 09:02:42;;;;;;;3.87;3.50;;;13.60;51.20;;;;;;5033378;28;20434;-51
2022/02/24 09:05:08;;;;;;;3.43;3.13;;;13.40;51.40;;;;;;5033267;28;20197;-51
2022/02/24 09:07:34;;;;;;;3.23;2.77;;;13.40;51.10;;;;;;5033360;28;20198;-48
2022/02/24 09:10:01;;;;;;;4.30;2.83;;;13.70;51.10;;;;;;5033606;28;20993;-51
2022/02/24 09:12:26;;;;;;;3.80;3.47;;;13.80;50.60;;;;;;5033671;28;20428;-50
2022/02/24 09:14:52;;;;;;;3.37;2.90;;;14.00;50.70;;;;;;5032864;28;20863;-47
2022/02/24 09:17:18;;;;;;;4.10;3.03;;;14.20;50.10;;;;;;5033121;28;20200;-51
2022/02/24 09:19:44;;;;;;;3.97;3.57;;;14.60;50.00;;;;;;5032755;28;20443;-53
2022/02/24 09:22:12;;;;;;;3.53;3.07;;;14.90;49.20;;;;;;5033590;28;20931;-48
2022/02/24 09:24:38;;;;;;;5.40;3.60;;;14.90;48.30;;;;;;5037233;28;20576;-51
2022/02/24 09:27:04;;;;;;;4.40;3.13;;;14.90;48.70;;;;;;5033283;28;20424;-47
2022/02/24 09:29:30;;;;;;;4.10;3.00;;;15.20;48.50;;;;;;5032730;28;20425;-53
2022/02/24 09:31:56;;;;;;;6.00;3.33;;;15.10;48.20;;;;;;5033237;28;20645;-52
2022/02/24 09:34:21;;;;;;;3.50;2.70;;;15.10;48.30;;;;;;5032303;28;20229;-50
2022/02/24 09:36:47;;;;;;;3.87;2.70;;;15.30;47.90;;;;;;5033283;28;20448;-46
2022/02/24 09:39:13;;;;;;;5.23;3.73;;;15.20;48.00;;;;;;5032641;28;20196;-50
2022/02/24 09:41:39;;;;;;;5.37;3.27;;;15.00;47.90;;;;;;5050774;28;20603;-50
2022/02/24 09:44:05;;;;;;;4.27;3.13;;;14.80;48.70;;;;;;5045685;28;20432;-50
2022/02/24 09:46:33;;;;;;;4.17;2.97;;;15.00;48.50;;;;;;5033090;28;20193;-50
2022/02/24 09:49:01;;;;;;;3.17;2.87;;;15.20;48.00;;;;;;5052198;28;20207;-47
2022/02/24 09:51:27;;;;;;;2.53;2.30;;;15.30;47.50;;;;;;5051244;28;20423;-47
2022/02/24 09:53:53;;;;;;;4.63;2.40;;;15.50;47.50;;;;;;5051977;28;20478;-51
2022/02/24 09:56:21;;;;;;;6.27;3.10;;;15.60;47.20;;;;;;5052574;28;20431;-52
2022/02/24 09:58:48;;;;;;;2.60;2.40;;;15.70;47.10;;;;;;5052145;28;20423;-50
2022/02/24 10:01:15;;;;;;;3.73;2.43;;;15.80;47.20;;;;;;5052349;28;20466;-51
2022/02/24 10:03:52;;;;;;;2.70;1.90;;;16.00;47.10;;;;;;5051457;28;20450;-48
2022/02/24 10:06:18;;;;;;;4.37;2.40;;;16.00;46.40;;;;;;5052598;28;20435;-53
2022/02/24 10:08:46;;;;;;;3.57;2.03;;;16.00;46.40;;;;;;5055670;28;20443;-50
2022/02/24 10:11:31;;;;;;;3.27;2.67;;;15.90;46.40;;;;;;5039380;28;20204;-51
2022/02/24 10:14:06;;;;;;;2.50;2.27;;;15.90;46.60;;;;;;5031708;28;20526;-52
2022/02/24 10:16:50;;;;;;;4.27;2.40;;;16.00;46.70;;;;;;5031345;28;20446;-50
2022/02/24 10:19:15;;;;;;;6.10;2.37;;;15.90;46.40;;;;;;5031977;28;20427;-51
2022/02/24 10:21:41;;;;;;;2.67;2.47;;;16.10;46.40;;;;;;5032392;28;20424;-51
2022/02/24 10:24:23;;;;;;;3.00;2.40;;;16.20;46.40;;;;;;5031647;28;20205;-51
2022/02/24 10:26:49;;;;;;;7.23;2.53;;;16.40;45.90;;;;;;5031774;28;20211;-51
2022/02/24 10:29:14;;;;;;;3.83;2.67;;;16.50;45.80;;;;;;5030997;28;20420;-46
2022/02/24 10:31:46;;;;;;;2.23;1.80;;;16.60;45.60;;;;;;5032077;28;20189;-46
2022/02/24 10:34:11;;;;;;;5.40;2.90;;;16.70;45.10;;;;;;5030795;28;20233;-46
2022/02/24 10:36:38;;;;;;;2.93;2.63;;;16.90;45.20;;;;;;5031878;28;20426;-46
2022/02/24 10:39:17;;;;;;;5.37;2.70;;;17.20;44.70;;;;;;5031088;28;20220;-52
2022/02/24 10:41:49;;;;;;;3.13;2.40;;;17.20;44.10;;;;;;5050009;28;20489;-51
2022/02/24 10:44:26;;;;;;;4.53;2.43;;;17.50;44.10;;;;;;5041440;28;20427;-51
2022/02/24 10:47:12;;;;;;;3.23;2.70;;;17.70;43.60;;;;;;5031812;28;20443;-51
2022/02/24 10:49:41;;;;;;;4.97;2.10;;;17.70;44.00;;;;;;5031128;28;20447;-46
2022/02/24 10:52:21;;;;;;;4.33;2.00;;;17.70;43.50;;;;;;5031915;28;20412;-47
2022/02/24 10:55:04;;;;;;;4.07;2.20;;;17.60;43.00;;;;;;5030649;28;20574;-48
2022/02/24 10:57:30;;;;;;;5.27;2.17;;;17.50;43.40;;;;;;5031040;28;20450;-52
2022/02/24 10:59:58;;;;;;;5.40;2.10;;;17.30;44.30;;;;;;5031492;28;20432;-47
2022/02/24 11:02:26;;;;;;;3.60;2.07;;;17.30;44.20;;;;;;5031733;28;20455;-46
2022/02/24 11:04:53;;;;;;;2.50;1.77;;;17.20;43.50;;;;;;5030548;28;20802;-47
2022/02/24 11:07:19;;;;;;;3.00;1.90;;;17.30;44.00;;;;;;5031398;28;20837;-51
2022/02/24 11:09:45;;;;;;;2.83;2.17;;;17.40;43.60;;;;;;5041059;28;21015;-51
2022/02/24 11:12:13;;;;;;;3.33;1.80;;;17.30;43.20;;;;;;5029759;28;20459;-46
2022/02/24 11:14:40;;;;;;;2.90;1.63;;;17.10;42.50;;;;;;5030340;28;20819;-47
2022/02/24 11:17:09;;;;;;;2.07;1.80;;;16.90;42.70;;;;;;5031300;28;20464;-46
2022/02/24 11:19:39;;;;;;;4.87;2.07;;;16.80;42.50;;;;;;5030560;28;21005;-48
2022/02/24 11:22:06;;;;;;;3.63;1.80;;;16.70;42.80;;;;;;5031354;28;20859;-48
2022/02/24 11:24:34;;;;;;;2.67;1.93;;;16.90;42.60;;;;;;5030344;28;20489;-48
2022/02/24 11:27:18;;;;;;;1.70;1.60;;;17.40;42.30;;;;;;5031003;28;20428;-47
2022/02/24 11:30:08;;;;;;;2.20;1.43;;;17.60;41.20;;;;;;5030845;28;20853;-48
2022/02/24 11:32:34;;;;;;;2.50;1.40;;;17.80;41.00;;;;;;5030368;28;20844;-47
2022/02/24 11:35:15;;;;;;;3.50;1.80;;;17.90;41.00;;;;;;5030514;28;20483;-51
2022/02/24 11:37:48;;;;;;;2.20;1.80;;;17.90;40.70;;;;;;5028549;28;20440;-48
2022/02/24 11:40:16;;;;;;;3.30;1.90;;;18.10;41.00;;;;;;5036175;28;20849;-46
2022/02/24 11:42:44;;;;;;;5.07;2.17;;;17.70;40.50;;;;;;5050299;28;20471;-49
2022/02/24 11:45:24;;;;;;;3.23;1.80;;;17.90;40.40;;;;;;5035080;28;20490;-47
2022/02/24 11:47:57;;;;;;;1.80;1.70;;;18.20;40.80;;;;;;5030024;28;20458;-49
2022/02/24 11:50:35;;;;;;;3.00;1.50;;;18.10;40.40;;;;;;5030863;28;20432;-47
2022/02/24 11:53:02;;;;;;;2.97;1.47;;;18.20;40.50;;;;;;5030105;28;20432;-52
2022/02/24 11:55:50;;;;;;;1.40;1.30;;;18.10;40.20;;;;;;5030012;28;20483;-48
2022/02/24 11:58:33;;;;;;;3.30;1.60;;;18.20;39.50;;;;;;5030317;28;20428;-46
2022/02/24 12:01:22;;;;;;;4.70;2.10;;;17.90;38.40;;;;;;5030806;28;20442;-46
2022/02/24 12:03:48;;;;;;;2.27;1.37;;;17.90;38.90;;;;;;5020503;28;20455;-49
2022/02/24 12:06:16;;;;;;;4.23;1.80;;;17.70;39.10;;;;;;5029091;28;20439;-47
2022/02/24 12:09:01;;;;;;;3.43;1.43;;;17.60;38.70;;;;;;5035324;28;20184;-46
2022/02/24 12:11:30;;;;;;;3.67;1.47;;;17.40;38.40;;;;;;5033242;28;20490;-48
2022/02/24 12:13:56;;;;;;;2.97;1.70;;;17.10;38.60;;;;;;5029989;28;20431;-49
2022/02/24 12:16:25;;;;;;;1.80;1.50;;;17.10;38.90;;;;;;5030769;28;20423;-48
2022/02/24 12:18:55;;;;;;;2.90;1.83;;;17.20;39.10;;;;;;5029904;28;20770;-46
2022/02/24 12:21:36;;;;;;;2.67;2.00;;;17.10;38.40;;;;;;5030470;28;20432;-51
2022/02/24 12:24:11;;;;;;;4.20;1.50;;;17.00;37.70;;;;;;5029657;28;20827;-48
2022/02/24 12:26:49;;;;;;;2.00;1.33;;;17.00;37.90;;;;;;5030549;28;20420;-47
2022/02/24 12:29:29;;;;;;;3.83;1.50;;;16.80;38.20;;;;;;5028269;28;20474;-49
2022/02/24 12:32:00;;;;;;;7.80;2.40;;;16.90;38.50;;;;;;5029078;28;20459;-46
2022/02/24 12:34:27;;;;;;;5.80;2.30;;;17.10;38.40;;;;;;5029626;28;20541;-51
2022/02/24 12:37:02;;;;;;;3.50;1.50;;;17.20;38.30;;;;;;5030762;28;20427;-47
2022/02/24 12:39:33;;;;;;;1.50;1.40;;;17.20;37.90;;;;;;5029597;28;20851;-47
2022/02/24 12:42:04;;;;;;;3.30;1.60;;;17.10;37.60;;;;;;5043227;28;20474;-49
2022/02/24 12:44:31;;;;;;;3.30;1.40;;;17.10;38.00;;;;;;5039305;28;20439;-46
2022/02/24 12:46:57;;;;;;;3.00;1.30;;;17.10;38.00;;;;;;5029993;28;20523;-50
2022/02/24 12:49:23;;;;;;;7.20;1.93;;;17.00;38.50;;;;;;5029658;28;20527;-48
2022/02/24 12:51:56;;;;;;;9.97;1.90;;;16.90;38.00;;;;;;5031477;28;20937;-46